Time;durP1;ratioP1;P1;durP2;ratioP2;P2;SDS_P1;SDS_P2;PMS_P1;PMS_P2;Temp;Humidity;BMP_temperature;BMP_pressure;BME280_temperature;BME280_humidity;BME280_pressure;Samples;Min_cycle;Max_cycle;Signal;HPM_P1;HPM_P2
2023/03/20 14:03:08;;;;;;;12.98;7.10;;;20.30;61.80;;;;;;5122801;27;20830;-70
2023/03/20 14:05:39;;;;;;;10.90;5.82;;;20.40;61.80;;;;;;5074203;28;20035;-72
2023/03/20 14:08:27;;;;;;;11.02;5.70;;;20.40;61.80;;;;;;5118626;22;20097;-77
2023/03/20 14:11:13;;;;;;;9.48;5.65;;;20.50;61.80;;;;;;5081999;28;20031;-76
2023/03/20 14:13:44;;;;;;;10.80;5.80;;;20.50;61.70;;;;;;5070720;28;20025;-77
2023/03/20 14:16:13;;;;;;;9.18;6.07;;;20.50;61.90;;;;;;5088882;28;20108;-76
2023/03/20 14:18:40;;;;;;;11.68;6.03;;;20.50;61.80;;;;;;5071076;28;20028;-76
2023/03/20 14:21:16;;;;;;;17.88;6.78;;;20.50;61.70;;;;;;5070940;28;20119;-76
2023/03/20 14:23:47;;;;;;;22.83;7.13;;;20.50;62.00;;;;;;5087473;28;20105;-76
2023/03/20 14:26:24;;;;;;;15.23;5.90;;;20.50;61.80;;;;;;5070938;28;20396;-76
2023/03/20 14:29:08;;;;;;;28.70;7.55;;;20.50;61.90;;;;;;5089561;28;20039;-78
2023/03/20 14:31:40;;;;;;;32.38;7.55;;;20.50;62.30;;;;;;5082087;28;20443;-78
2023/03/20 14:34:16;;;;;;;29.10;6.78;;;20.50;62.20;;;;;;5067637;28;20016;-77
2023/03/20 14:38:34;;;;;;;15.23;6.35;;;20.50;61.70;;;;;;5107734;27;20483;-75
2023/03/20 14:41:21;;;;;;;25.70;6.63;;;20.60;62.20;;;;;;5086490;28;20118;-75
2023/03/20 14:44:07;;;;;;;21.38;7.28;;;20.60;62.10;;;;;;5089573;28;20487;-77
2023/03/20 14:46:57;;;;;;;15.32;5.82;;;20.60;62.10;;;;;;5106154;28;20042;-77
2023/03/20 14:49:31;;;;;;;18.40;7.35;;;20.60;62.10;;;;;;5107312;28;20028;-77
2023/03/20 14:52:30;;;;;;;17.00;6.65;;;20.60;62.00;;;;;;5107575;28;20035;-78
2023/03/20 14:55:19;;;;;;;22.20;6.25;;;20.60;62.10;;;;;;5096980;28;20055;-77
2023/03/20 14:57:45;;;;;;;22.65;6.40;;;20.60;62.70;;;;;;5105646;28;20081;-82
2023/03/20 15:00:19;;;;;;;16.75;5.95;;;20.60;62.70;;;;;;5087054;28;20029;-81
2023/03/20 15:02:49;;;;;;;17.77;6.40;;;20.60;62.50;;;;;;5081536;28;20028;-80
2023/03/20 15:05:28;;;;;;;13.95;6.03;;;20.60;62.40;;;;;;5083673;28;20029;-80
2023/03/20 15:07:57;;;;;;;18.07;6.97;;;20.60;62.20;;;;;;5062696;28;20499;-81
2023/03/20 15:10:25;;;;;;;19.27;5.70;;;20.60;62.30;;;;;;5085559;28;20538;-81
2023/03/20 15:12:51;;;;;;;15.00;5.60;;;20.60;62.30;;;;;;5083445;28;20036;-80
2023/03/20 15:15:27;;;;;;;12.23;5.25;;;20.50;62.10;;;;;;5085925;28;20528;-81
2023/03/20 15:17:53;;;;;;;15.43;6.32;;;20.50;62.20;;;;;;5082736;28;20071;-81
2023/03/20 15:20:28;;;;;;;14.20;6.18;;;20.60;62.30;;;;;;5066089;28;20064;-81
2023/03/20 15:22:59;;;;;;;12.77;6.07;;;20.60;62.20;;;;;;5084198;28;20039;-80
2023/03/20 15:25:42;;;;;;;12.73;5.95;;;20.50;62.30;;;;;;5084151;28;20407;-82
2023/03/20 15:28:19;;;;;;;11.13;5.65;;;20.60;62.40;;;;;;5066093;28;20028;-81
2023/03/20 15:30:47;;;;;;;13.50;5.72;;;20.60;62.30;;;;;;5068205;28;20032;-81
2023/03/20 15:33:30;;;;;;;13.40;6.47;;;20.60;62.70;;;;;;5078810;28;20491;-81
2023/03/20 15:35:56;;;;;;;15.10;5.78;;;20.60;62.80;;;;;;5069513;28;20028;-81
2023/03/20 15:38:31;;;;;;;16.15;5.93;;;20.60;62.90;;;;;;5082862;28;20060;-81
2023/03/20 15:40:57;;;;;;;14.60;6.25;;;20.60;62.70;;;;;;5050710;28;20032;-82
2023/03/20 15:43:25;;;;;;;21.23;6.25;;;20.60;62.40;;;;;;5067787;28;20028;-82
2023/03/20 15:45:55;;;;;;;17.48;6.28;;;20.60;62.90;;;;;;5067711;28;20028;-77
2023/03/20 15:48:22;;;;;;;;;;;20.60;62.70;;;;;;5101683;28;20024;-78
2023/03/20 15:50:55;;;;;;;27.08;6.07;;;20.60;62.50;;;;;;5074028;28;19912;-78
2023/03/20 15:53:44;;;;;;;23.05;6.22;;;20.60;63.20;;;;;;5090972;28;20024;-77
2023/03/20 15:56:15;;;;;;;25.35;7.60;;;20.60;63.10;;;;;;5090657;28;20036;-78
2023/03/20 15:58:43;;;;;;;43.22;8.20;;;20.60;63.30;;;;;;5092317;28;20020;-85
2023/03/20 16:01:19;;;;;;;41.15;7.65;;;20.60;63.40;;;;;;5090931;28;20690;-83
2023/03/20 16:03:45;;;;;;;17.00;6.50;;;20.60;63.10;;;;;;5074503;28;20028;-78
2023/03/20 16:06:15;;;;;;;21.65;5.80;;;20.60;62.60;;;;;;5090837;28;20035;-74
2023/03/20 16:08:41;;;;;;;35.10;7.10;;;20.60;62.50;;;;;;5084469;28;20024;-73
2023/03/20 16:11:17;;;;;;;14.23;5.78;;;20.70;63.50;;;;;;5078385;28;20029;-74
2023/03/20 16:13:46;;;;;;;30.30;7.22;;;20.60;62.70;;;;;;5071473;28;20028;-74
2023/03/20 16:16:15;;;;;;;19.33;6.13;;;20.70;63.20;;;;;;5088391;28;20040;-74
2023/03/20 16:18:45;;;;;;;23.20;6.68;;;20.70;63.30;;;;;;5091704;28;20032;-75
2023/03/20 16:21:28;;;;;;;29.30;7.13;;;20.70;62.80;;;;;;5091454;28;20099;-74
2023/03/20 16:23:57;;;;;;;19.85;6.13;;;20.80;62.80;;;;;;5091500;28;20102;-78
2023/03/20 16:26:25;;;;;;;23.25;6.78;;;20.80;63.40;;;;;;5069152;28;20446;-76
2023/03/20 16:28:54;;;;;;;22.77;7.10;;;20.70;63.50;;;;;;5070002;28;20035;-76
2023/03/20 16:31:32;;;;;;;20.70;6.43;;;20.70;63.10;;;;;;5068549;28;20020;-76
2023/03/20 16:34:16;;;;;;;25.00;6.25;;;20.70;63.30;;;;;;5068992;28;20266;-77
2023/03/20 16:36:53;;;;;;;15.98;6.45;;;20.60;63.10;;;;;;5066576;28;20054;-77
2023/03/20 16:39:22;;;;;;;21.20;6.53;;;20.60;63.20;;;;;;5069600;28;20056;-77
2023/03/20 16:42:15;;;;;;;22.07;6.13;;;20.60;63.20;;;;;;5069719;28;20476;-77
2023/03/20 16:44:41;;;;;;;24.10;6.60;;;20.60;63.10;;;;;;5068249;28;20025;-76
2023/03/20 16:47:12;;;;;;;12.90;5.82;;;20.60;63.10;;;;;;5069334;28;20041;-76
2023/03/20 16:49:49;;;;;;;21.98;6.13;;;20.60;63.10;;;;;;5069495;28;20020;-76
2023/03/20 16:52:19;;;;;;;18.98;6.70;;;20.60;63.20;;;;;;5065102;28;20116;-76
2023/03/20 16:54:45;;;;;;;14.90;5.82;;;20.60;63.90;;;;;;5072702;28;20027;-74
2023/03/20 16:57:16;;;;;;;16.45;6.25;;;20.70;63.70;;;;;;5067671;28;20389;-75
2023/03/20 16:59:42;;;;;;;27.20;6.82;;;20.70;63.10;;;;;;5068384;28;20040;-74
2023/03/20 17:02:21;;;;;;;19.25;6.95;;;20.60;63.20;;;;;;5068504;28;20029;-74
2023/03/20 17:04:48;;;;;;;24.75;6.72;;;20.60;63.90;;;;;;5069762;28;20020;-73
2023/03/20 17:07:22;;;;;;;17.20;6.63;;;20.60;63.60;;;;;;5068981;28;20043;-73
2023/03/20 17:10:11;;;;;;;21.20;6.57;;;20.60;63.30;;;;;;5067514;28;20197;-73
2023/03/20 17:12:39;;;;;;;22.52;6.30;;;20.60;63.30;;;;;;5065548;28;20094;-73
2023/03/20 17:15:06;;;;;;;16.85;6.32;;;20.60;63.60;;;;;;5066904;28;20024;-73
2023/03/20 17:17:32;;;;;;;15.00;5.68;;;20.60;63.80;;;;;;5067041;28;20047;-72
2023/03/20 17:19:59;;;;;;;17.45;6.47;;;20.60;63.60;;;;;;5065898;28;20047;-73
2023/03/20 17:22:29;;;;;;;18.02;6.25;;;20.60;63.80;;;;;;5066668;28;20472;-73
2023/03/20 17:24:55;;;;;;;20.50;6.00;;;20.60;63.50;;;;;;5070637;28;20024;-73
2023/03/20 17:27:22;;;;;;;21.40;5.95;;;20.60;63.60;;;;;;5059205;28;20135;-73
2023/03/20 17:29:50;;;;;;;21.48;6.47;;;20.70;65.20;;;;;;5068533;28;20136;-73
2023/03/20 17:32:19;;;;;;;25.42;7.28;;;20.70;63.90;;;;;;5067764;28;20035;-73
2023/03/20 17:34:45;;;;;;;23.35;7.38;;;20.70;64.10;;;;;;5067352;28;20043;-73
2023/03/20 17:37:21;;;;;;;22.85;7.38;;;20.70;64.60;;;;;;5066255;28;20496;-73
2023/03/20 17:39:47;;;;;;;17.75;6.93;;;20.70;63.30;;;;;;5067795;28;20472;-74
2023/03/20 17:42:17;;;;;;;25.80;7.97;;;20.80;63.50;;;;;;5065816;28;20029;-74
2023/03/20 17:44:43;;;;;;;27.08;8.88;;;20.70;64.70;;;;;;5068323;28;20029;-74
2023/03/20 17:47:18;;;;;;;18.95;7.50;;;20.70;64.40;;;;;;5069025;28;20021;-74
2023/03/20 17:49:45;;;;;;;29.33;8.13;;;20.70;64.30;;;;;;5065731;28;20033;-74
2023/03/20 17:52:18;;;;;;;19.92;6.97;;;20.70;64.30;;;;;;5067664;28;20033;-73
2023/03/20 17:54:45;;;;;;;25.05;7.65;;;20.70;64.20;;;;;;5050034;28;20037;-74
2023/03/20 17:57:22;;;;;;;20.02;7.53;;;20.70;64.10;;;;;;5048935;28;20516;-73
2023/03/20 17:59:48;;;;;;;18.80;6.80;;;20.70;64.30;;;;;;5067860;28;20429;-74
2023/03/20 18:02:17;;;;;;;25.50;7.45;;;20.70;64.20;;;;;;5067980;28;20036;-74
2023/03/20 18:04:46;;;;;;;17.90;6.85;;;20.70;64.10;;;;;;5065693;28;20025;-74
2023/03/20 18:07:12;;;;;;;16.42;7.28;;;20.70;64.30;;;;;;5065830;28;20044;-74
2023/03/20 18:09:40;;;;;;;20.67;7.22;;;20.70;64.00;;;;;;5065992;28;20500;-75
2023/03/20 18:12:09;;;;;;;16.92;6.93;;;20.70;64.30;;;;;;5069297;28;20040;-75
2023/03/20 18:14:35;;;;;;;20.20;6.50;;;20.70;64.60;;;;;;5067338;28;20028;-75
2023/03/20 18:17:01;;;;;;;18.90;6.53;;;20.70;64.40;;;;;;5050094;28;21152;-75
2023/03/20 18:19:28;;;;;;;25.73;7.18;;;20.70;64.30;;;;;;5067549;28;20582;-75
2023/03/20 18:21:55;;;;;;;26.80;6.88;;;20.80;64.40;;;;;;5034153;28;20032;-75
2023/03/20 18:24:22;;;;;;;28.58;7.13;;;20.70;63.90;;;;;;5067228;28;20138;-75
2023/03/20 18:26:49;;;;;;;21.27;6.13;;;20.80;64.50;;;;;;5048544;28;20056;-75
2023/03/20 18:29:15;;;;;;;22.95;7.43;;;20.80;64.30;;;;;;5049152;28;20043;-75
2023/03/20 18:31:41;;;;;;;20.20;6.53;;;20.70;64.60;;;;;;5066849;28;20051;-75
2023/03/20 18:34:07;;;;;;;14.68;6.43;;;20.80;63.90;;;;;;5067315;28;20532;-75
2023/03/20 18:36:33;;;;;;;16.58;6.25;;;20.70;64.00;;;;;;5067625;28;20057;-75
2023/03/20 18:38:59;;;;;;;19.88;7.00;;;20.80;63.90;;;;;;5069214;28;20153;-75
2023/03/20 18:41:24;;;;;;;20.17;6.05;;;20.70;63.60;;;;;;5068982;28;20029;-75
2023/03/20 18:43:54;;;;;;;17.52;6.43;;;20.70;63.60;;;;;;5068705;28;20077;-75
2023/03/20 18:46:22;;;;;;;18.92;7.18;;;20.80;63.30;;;;;;5068860;28;20048;-75
2023/03/20 18:48:50;;;;;;;15.20;7.10;;;20.70;63.80;;;;;;5067910;28;20029;-75
2023/03/20 18:51:17;;;;;;;18.80;6.88;;;20.80;63.40;;;;;;5067584;28;20566;-75
2023/03/20 18:53:44;;;;;;;21.77;6.57;;;20.80;63.70;;;;;;5067211;28;20036;-76
2023/03/20 18:56:24;;;;;;;18.45;6.20;;;20.70;63.40;;;;;;5067819;28;20021;-75
2023/03/20 18:58:51;;;;;;;17.05;6.63;;;20.70;63.40;;;;;;5069117;28;20057;-76
2023/03/20 19:01:18;;;;;;;19.45;6.82;;;20.70;63.70;;;;;;5034381;28;20607;-76
2023/03/20 19:03:45;;;;;;;16.48;6.40;;;20.70;63.40;;;;;;5068525;28;20036;-76
2023/03/20 19:06:20;;;;;;;15.60;6.00;;;20.80;63.40;;;;;;5068613;28;20387;-76
2023/03/20 19:08:46;;;;;;;17.73;6.70;;;20.80;63.30;;;;;;5067701;28;20036;-76
2023/03/20 19:11:16;;;;;;;16.50;6.00;;;20.70;63.20;;;;;;5067491;28;20024;-76
2023/03/20 19:13:46;;;;;;;21.77;6.63;;;20.80;63.40;;;;;;5068298;28;20387;-75
2023/03/20 19:16:26;;;;;;;17.33;6.65;;;20.80;63.40;;;;;;5067205;28;20420;-75
2023/03/20 19:18:52;;;;;;;;;;;20.80;63.40;;;;;;5069070;28;20033;-75
2023/03/20 19:21:18;;;;;;;16.65;7.05;;;20.80;63.30;;;;;;5068606;28;19916;-75
2023/03/20 19:23:45;;;;;;;28.77;7.20;;;20.80;63.30;;;;;;5069589;28;20025;-80
2023/03/20 19:26:16;;;;;;;18.80;6.75;;;20.80;64.00;;;;;;5072366;28;20024;-81
2023/03/20 19:28:43;;;;;;;16.00;6.50;;;20.70;63.80;;;;;;5072298;28;20036;-79
2023/03/20 19:31:09;;;;;;;17.63;6.70;;;20.70;63.90;;;;;;5072366;28;20024;-80
2023/03/20 19:33:37;;;;;;;18.25;6.82;;;20.70;63.60;;;;;;5070740;28;20465;-80
2023/03/20 19:36:03;;;;;;;19.60;6.35;;;20.70;63.30;;;;;;5036750;28;20028;-79
2023/03/20 19:38:29;;;;;;;18.40;6.65;;;20.70;63.30;;;;;;5070762;28;20507;-79
2023/03/20 19:40:55;;;;;;;13.88;6.35;;;20.70;63.40;;;;;;5071075;28;20028;-80
2023/03/20 19:43:22;;;;;;;18.95;6.82;;;20.70;63.20;;;;;;5071908;28;20086;-80
2023/03/20 19:45:50;;;;;;;13.02;7.15;;;20.70;63.20;;;;;;5071906;28;20074;-79
2023/03/20 19:48:29;;;;;;;16.65;6.10;;;20.70;63.20;;;;;;5070799;28;20028;-80
2023/03/20 19:50:56;;;;;;;17.05;6.65;;;20.70;63.20;;;;;;5070777;28;20029;-79
2023/03/20 19:53:26;;;;;;;14.80;7.18;;;20.70;63.10;;;;;;5070295;28;20042;-78
2023/03/20 19:55:53;;;;;;;;;;;20.70;63.10;;;;;;5072197;28;20578;-77
2023/03/20 19:58:23;;;;;;;14.55;6.47;;;20.70;63.10;;;;;;5071632;28;20272;-78
2023/03/20 20:00:49;;;;;;;15.52;6.20;;;20.70;63.00;;;;;;5071838;28;20074;-79
2023/03/20 20:03:18;;;;;;;14.63;7.32;;;20.70;63.00;;;;;;5070255;28;20027;-78
2023/03/20 20:05:45;;;;;;;16.30;6.83;;;20.70;63.00;;;;;;5070327;28;20025;-78
2023/03/20 20:08:11;;;;;;;17.08;7.18;;;20.70;63.00;;;;;;5081621;22;20102;-73
2023/03/20 20:10:48;;;;;;;14.18;6.38;;;20.70;63.00;;;;;;5071399;28;20052;-73
2023/03/20 20:13:26;;;;;;;15.35;7.05;;;20.70;63.00;;;;;;5051377;28;20064;-73
2023/03/20 20:15:53;;;;;;;16.75;6.60;;;20.70;62.90;;;;;;5053403;28;20040;-73
2023/03/20 20:18:21;;;;;;;14.27;7.53;;;20.70;62.90;;;;;;5071130;28;20102;-72
2023/03/20 20:20:49;;;;;;;16.20;7.25;;;20.70;62.80;;;;;;5071477;28;20399;-72
2023/03/20 20:23:21;;;;;;;14.80;6.38;;;20.70;62.80;;;;;;5070961;28;20067;-72
2023/03/20 20:25:48;;;;;;;15.13;6.88;;;20.70;62.80;;;;;;5070107;28;20441;-72
2023/03/20 20:28:16;;;;;;;15.25;7.18;;;20.70;62.70;;;;;;5070916;28;20033;-73
2023/03/20 20:30:46;;;;;;;14.60;7.07;;;20.60;62.60;;;;;;5071155;28;20028;-73
2023/03/20 20:33:11;;;;;;;17.98;7.55;;;20.60;62.70;;;;;;5050824;28;20396;-73
2023/03/20 20:35:40;;;;;;;16.08;7.78;;;20.60;62.60;;;;;;5049726;28;20036;-72
2023/03/20 20:38:06;;;;;;;13.77;7.55;;;20.70;62.60;;;;;;5088023;28;20028;-72
2023/03/20 20:40:32;;;;;;;15.65;7.45;;;20.70;62.60;;;;;;5091243;28;20069;-72
2023/03/20 20:42:58;;;;;;;16.05;6.82;;;20.70;62.60;;;;;;5078467;28;20020;-72
2023/03/20 20:45:27;;;;;;;18.27;7.15;;;20.70;62.50;;;;;;5070861;28;20029;-72
2023/03/20 20:47:53;;;;;;;15.32;7.47;;;20.70;62.50;;;;;;5068358;28;20131;-72
2023/03/20 20:50:25;;;;;;;14.18;7.43;;;20.70;62.50;;;;;;5052475;28;20063;-73
2023/03/20 20:52:52;;;;;;;17.67;7.82;;;20.70;62.30;;;;;;5070078;28;20037;-72
2023/03/20 20:55:20;;;;;;;15.52;7.20;;;20.70;62.40;;;;;;5068898;28;20024;-72
2023/03/20 20:57:46;;;;;;;13.20;7.45;;;20.60;62.30;;;;;;5070124;28;20443;-73
2023/03/20 21:00:14;;;;;;;14.75;7.43;;;20.70;62.30;;;;;;5052111;28;20445;-73
2023/03/20 21:02:41;;;;;;;16.25;6.93;;;20.60;62.30;;;;;;5069849;28;20024;-73
2023/03/20 21:05:12;;;;;;;14.38;6.80;;;20.70;62.30;;;;;;5068815;28;20471;-73
2023/03/20 21:07:41;;;;;;;15.18;7.55;;;20.70;62.30;;;;;;5066860;28;20060;-72
2023/03/20 21:10:08;;;;;;;12.55;6.45;;;20.60;62.30;;;;;;5070337;28;20507;-73
2023/03/20 21:12:34;;;;;;;15.57;7.13;;;20.60;62.30;;;;;;5070184;28;20036;-72
2023/03/20 21:15:00;;;;;;;13.05;6.60;;;20.60;62.30;;;;;;5070080;28;20145;-73
2023/03/20 21:17:27;;;;;;;16.80;7.15;;;20.60;62.20;;;;;;5070038;28;20062;-73
2023/03/20 21:19:53;;;;;;;15.20;7.22;;;20.60;62.30;;;;;;5070130;28;20039;-73
2023/03/20 21:22:21;;;;;;;13.52;6.65;;;20.70;62.30;;;;;;5069987;28;20021;-73
2023/03/20 21:24:48;;;;;;;15.38;7.13;;;20.60;62.20;;;;;;5069936;28;20040;-73
2023/03/20 21:27:15;;;;;;;14.88;6.82;;;20.60;62.10;;;;;;5069925;28;20051;-73
2023/03/20 21:29:42;;;;;;;15.77;7.70;;;20.60;62.20;;;;;;5068895;28;20052;-73
2023/03/20 21:32:12;;;;;;;15.18;7.22;;;20.60;62.10;;;;;;5069807;28;20480;-73
2023/03/20 21:34:39;;;;;;;13.20;7.45;;;20.60;62.10;;;;;;5068587;28;20085;-72
2023/03/20 21:37:06;;;;;;;17.30;7.15;;;20.60;62.10;;;;;;5069749;28;20027;-73
2023/03/20 21:39:32;;;;;;;15.05;7.65;;;20.70;62.20;;;;;;5068785;28;20020;-73
2023/03/20 21:41:58;;;;;;;14.15;7.30;;;20.70;62.00;;;;;;5069507;28;20020;-73
2023/03/20 21:44:25;;;;;;;13.52;7.10;;;20.60;62.00;;;;;;5068517;28;20024;-73
2023/03/20 21:46:51;;;;;;;13.35;6.45;;;20.70;62.00;;;;;;5069078;28;20028;-73
2023/03/20 21:49:18;;;;;;;16.23;6.80;;;20.70;61.90;;;;;;5068231;28;20028;-73
2023/03/20 21:51:44;;;;;;;13.80;7.03;;;20.60;61.90;;;;;;5065259;28;20036;-73
2023/03/20 21:54:10;;;;;;;13.50;6.60;;;20.70;62.00;;;;;;5047912;28;20071;-73
2023/03/20 21:56:36;;;;;;;13.13;6.97;;;20.70;62.00;;;;;;5050531;28;20505;-73
2023/03/20 21:59:02;;;;;;;14.88;6.72;;;20.70;61.90;;;;;;5069255;28;20537;-73
2023/03/20 22:01:28;;;;;;;14.23;7.45;;;20.60;61.90;;;;;;5069310;28;20484;-72
2023/03/20 22:03:54;;;;;;;16.20;7.55;;;20.70;61.80;;;;;;5069218;28;20028;-73
2023/03/20 22:06:20;;;;;;;13.32;6.57;;;20.60;61.80;;;;;;5068530;28;20036;-73
2023/03/20 22:08:46;;;;;;;13.88;7.15;;;20.60;61.80;;;;;;5069217;28;20035;-73
2023/03/20 22:11:12;;;;;;;14.00;6.80;;;20.60;61.90;;;;;;5069102;28;20099;-73
2023/03/20 22:13:39;;;;;;;16.65;6.80;;;20.60;61.80;;;;;;5049381;28;20513;-73
2023/03/20 22:16:05;;;;;;;13.48;6.93;;;20.60;61.80;;;;;;5049272;28;20036;-73
2023/03/20 22:18:31;;;;;;;13.45;6.63;;;20.60;61.80;;;;;;5066306;28;20074;-73
2023/03/20 22:20:58;;;;;;;11.98;6.47;;;20.60;61.70;;;;;;5067843;28;20029;-73
2023/03/20 22:23:25;;;;;;;13.30;6.78;;;20.60;61.70;;;;;;5068857;28;20025;-73
2023/03/20 22:26:02;;;;;;;13.52;6.75;;;20.60;61.70;;;;;;5069281;28;20028;-73
2023/03/20 22:28:29;;;;;;;12.00;6.55;;;20.60;61.70;;;;;;5067910;28;20131;-72
2023/03/20 22:30:55;;;;;;;11.48;6.40;;;20.60;61.70;;;;;;5067649;28;20449;-73
2023/03/20 22:33:22;;;;;;;13.65;6.40;;;20.60;61.70;;;;;;5069027;28;20036;-73
2023/03/20 22:35:49;;;;;;;11.43;6.18;;;20.60;61.70;;;;;;5069307;28;20028;-73
2023/03/20 22:38:16;;;;;;;12.13;6.50;;;20.60;61.70;;;;;;5069029;28;20056;-73
2023/03/20 22:40:43;;;;;;;12.48;6.55;;;20.60;61.70;;;;;;5068686;28;20037;-73
2023/03/20 22:43:09;;;;;;;10.27;5.60;;;20.60;62.30;;;;;;5054976;28;20037;-73
2023/03/20 22:45:36;;;;;;;11.50;5.85;;;20.60;61.60;;;;;;5047818;28;20452;-73
2023/03/20 22:48:03;;;;;;;12.50;6.25;;;20.60;61.60;;;;;;5047787;28;20128;-73
2023/03/20 22:50:29;;;;;;;12.25;6.25;;;20.60;61.50;;;;;;5047729;28;20036;-73
2023/03/20 22:52:56;;;;;;;11.57;6.20;;;20.60;61.50;;;;;;5058877;28;20373;-73
2023/03/20 22:55:23;;;;;;;11.27;6.35;;;20.60;61.50;;;;;;5068773;28;20498;-73
2023/03/20 22:57:49;;;;;;;11.60;6.30;;;20.60;61.50;;;;;;5068743;28;20028;-73
2023/03/20 23:00:16;;;;;;;12.82;6.25;;;20.60;61.50;;;;;;5072837;28;20081;-73
2023/03/20 23:02:42;;;;;;;12.07;6.18;;;20.60;61.50;;;;;;5072362;28;20480;-73
2023/03/20 23:05:09;;;;;;;12.60;6.20;;;20.60;61.50;;;;;;5071663;28;20074;-73
2023/03/20 23:07:36;;;;;;;11.00;5.93;;;20.60;61.40;;;;;;5072679;28;20040;-72
2023/03/20 23:10:03;;;;;;;12.85;6.38;;;20.60;62.10;;;;;;5072646;28;20028;-73
2023/03/20 23:12:29;;;;;;;12.93;6.38;;;20.60;61.50;;;;;;5070992;28;20033;-73
2023/03/20 23:14:55;;;;;;;9.93;5.95;;;20.60;61.50;;;;;;5071480;28;20035;-73
2023/03/20 23:17:21;;;;;;;11.93;6.30;;;20.60;61.50;;;;;;5072448;28;20431;-73
2023/03/20 23:19:47;;;;;;;12.88;6.30;;;20.60;61.50;;;;;;5072516;28;20029;-73
2023/03/20 23:22:12;;;;;;;10.35;5.53;;;20.50;61.40;;;;;;5070848;28;20670;-73
2023/03/20 23:24:40;;;;;;;10.73;5.40;;;20.60;61.50;;;;;;5072124;28;20035;-73
2023/03/20 23:27:06;;;;;;;12.77;6.07;;;20.60;61.40;;;;;;5072286;28;20514;-73
2023/03/20 23:29:31;;;;;;;11.57;6.03;;;20.60;61.40;;;;;;5072692;28;20036;-73
2023/03/20 23:31:57;;;;;;;11.55;6.07;;;20.60;61.40;;;;;;5072328;28;20025;-73
2023/03/20 23:34:23;;;;;;;9.80;5.80;;;20.60;61.40;;;;;;5050639;28;20033;-73
2023/03/20 23:36:49;;;;;;;11.25;5.47;;;20.60;61.30;;;;;;5051037;28;20045;-73
2023/03/20 23:39:14;;;;;;;11.05;5.88;;;20.60;61.30;;;;;;5089423;28;20032;-73
2023/03/20 23:41:40;;;;;;;14.10;6.05;;;20.50;61.30;;;;;;5092528;28;20024;-73
2023/03/20 23:44:06;;;;;;;11.32;5.88;;;20.60;61.30;;;;;;5090456;28;20531;-72
2023/03/20 23:46:32;;;;;;;12.88;5.63;;;20.60;61.20;;;;;;5092439;28;20028;-73
2023/03/20 23:48:58;;;;;;;11.55;5.88;;;20.60;61.20;;;;;;5090830;28;20461;-73
2023/03/20 23:51:24;;;;;;;10.23;6.38;;;20.60;61.20;;;;;;5092311;28;20070;-73
2023/03/20 23:53:49;;;;;;;9.43;5.68;;;20.60;61.20;;;;;;5091606;28;20030;-73
2023/03/20 23:56:16;;;;;;;10.77;5.85;;;20.60;61.20;;;;;;5092201;28;20077;-73
2023/03/20 23:58:44;;;;;;;11.00;5.32;;;20.60;61.10;;;;;;5091974;28;20395;-73
